sensor_id;sensor_type;location;lat;lon;timestamp;temperature;humidity
3334;DHT22;1679;50.392;8.008;2022-12-07T00:01:39;2.90;99.90
3334;DHT22;1679;50.392;8.008;2022-12-07T00:04:06;2.80;99.90
3334;DHT22;1679;50.392;8.008;2022-12-07T00:06:34;2.80;99.90
3334;DHT22;1679;50.392;8.008;2022-12-07T00:08:59;2.70;99.90
3334;DHT22;1679;50.392;8.008;2022-12-07T00:11:25;2.70;99.90
3334;DHT22;1679;50.392;8.008;2022-12-07T00:13:52;2.70;99.90
3334;DHT22;1679;50.392;8.008;2022-12-07T00:16:20;2.70;99.90
3334;DHT22;1679;50.392;8.008;2022-12-07T00:18:46;2.70;99.90
3334;DHT22;1679;50.392;8.008;2022-12-07T00:21:13;2.80;99.90
3334;DHT22;1679;50.392;8.008;2022-12-07T00:23:40;2.80;99.90
3334;DHT22;1679;50.392;8.008;2022-12-07T00:26:10;2.80;99.90
3334;DHT22;1679;50.392;8.008;2022-12-07T00:28:36;2.80;99.90
3334;DHT22;1679;50.392;8.008;2022-12-07T00:31:12;2.90;99.90
3334;DHT22;1679;50.392;8.008;2022-12-07T00:33:39;2.90;99.90
3334;DHT22;1679;50.392;8.008;2022-12-07T00:36:11;2.80;99.90
3334;DHT22;1679;50.392;8.008;2022-12-07T00:38:38;2.80;99.90
3334;DHT22;1679;50.392;8.008;2022-12-07T00:41:12;2.80;99.90
3334;DHT22;1679;50.392;8.008;2022-12-07T00:43:39;2.90;99.90
3334;DHT22;1679;50.392;8.008;2022-12-07T00:46:06;2.90;99.90
3334;DHT22;1679;50.392;8.008;2022-12-07T00:48:32;3.00;99.90
3334;DHT22;1679;50.392;8.008;2022-12-07T00:50:59;3.00;99.90
3334;DHT22;1679;50.392;8.008;2022-12-07T00:53:27;3.00;99.90
3334;DHT22;1679;50.392;8.008;2022-12-07T00:55:53;2.90;99.90
3334;DHT22;1679;50.392;8.008;2022-12-07T00:58:19;3.00;99.90
3334;DHT22;1679;50.392;8.008;2022-12-07T01:00:45;2.90;99.90
3334;DHT22;1679;50.392;8.008;2022-12-07T01:03:13;3.00;99.90
3334;DHT22;1679;50.392;8.008;2022-12-07T01:05:39;3.00;99.90
3334;DHT22;1679;50.392;8.008;2022-12-07T01:08:06;3.00;99.90
3334;DHT22;1679;50.392;8.008;2022-12-07T01:10:31;3.00;99.90
3334;DHT22;1679;50.392;8.008;2022-12-07T01:12:58;3.10;99.90
3334;DHT22;1679;50.392;8.008;2022-12-07T01:15:24;3.10;99.90
3334;DHT22;1679;50.392;8.008;2022-12-07T01:17:50;3.00;99.90
3334;DHT22;1679;50.392;8.008;2022-12-07T01:20:15;3.00;99.90
3334;DHT22;1679;50.392;8.008;2022-12-07T01:22:42;3.00;99.90
3334;DHT22;1679;50.392;8.008;2022-12-07T01:25:10;3.00;99.90
3334;DHT22;1679;50.392;8.008;2022-12-07T01:27:36;3.00;99.90
3334;DHT22;1679;50.392;8.008;2022-12-07T01:30:05;3.00;99.90
3334;DHT22;1679;50.392;8.008;2022-12-07T01:32:31;3.10;99.90
3334;DHT22;1679;50.392;8.008;2022-12-07T01:34:57;3.10;99.90
3334;DHT22;1679;50.392;8.008;2022-12-07T01:37:22;3.10;99.90
3334;DHT22;1679;50.392;8.008;2022-12-07T01:39:51;3.00;99.90
3334;DHT22;1679;50.392;8.008;2022-12-07T01:42:18;3.00;99.90
3334;DHT22;1679;50.392;8.008;2022-12-07T01:47:53;3.10;99.90
3334;DHT22;1679;50.392;8.008;2022-12-07T01:50:19;3.00;99.90
3334;DHT22;1679;50.392;8.008;2022-12-07T01:52:50;2.90;99.90
3334;DHT22;1679;50.392;8.008;2022-12-07T01:55:17;2.90;99.90
3334;DHT22;1679;50.392;8.008;2022-12-07T01:57:47;3.00;99.90
3334;DHT22;1679;50.392;8.008;2022-12-07T02:00:14;2.90;99.90
3334;DHT22;1679;50.392;8.008;2022-12-07T02:02:55;2.90;99.90
3334;DHT22;1679;50.392;8.008;2022-12-07T02:05:24;3.00;99.90
3334;DHT22;1679;50.392;8.008;2022-12-07T02:07:51;3.00;99.90
3334;DHT22;1679;50.392;8.008;2022-12-07T02:10:26;3.10;99.90
3334;DHT22;1679;50.392;8.008;2022-12-07T02:13:02;3.00;99.90
3334;DHT22;1679;50.392;8.008;2022-12-07T02:16:20;3.00;99.90
3334;DHT22;1679;50.392;8.008;2022-12-07T02:18:48;3.00;99.90
3334;DHT22;1679;50.392;8.008;2022-12-07T02:21:20;3.00;99.90
3334;DHT22;1679;50.392;8.008;2022-12-07T02:31:46;3.10;99.90
3334;DHT22;1679;50.392;8.008;2022-12-07T02:34:30;3.20;99.90
3334;DHT22;1679;50.392;8.008;2022-12-07T02:37:02;3.10;99.90
3334;DHT22;1679;50.392;8.008;2022-12-07T02:39:39;3.20;99.90
3334;DHT22;1679;50.392;8.008;2022-12-07T02:42:14;3.20;99.90
3334;DHT22;1679;50.392;8.008;2022-12-07T02:44:41;3.20;99.90
3334;DHT22;1679;50.392;8.008;2022-12-07T02:47:10;3.30;99.90
3334;DHT22;1679;50.392;8.008;2022-12-07T02:49:38;3.20;99.90
3334;DHT22;1679;50.392;8.008;2022-12-07T02:52:05;3.20;99.90
3334;DHT22;1679;50.392;8.008;2022-12-07T02:54:30;3.20;99.90
3334;DHT22;1679;50.392;8.008;2022-12-07T02:57:29;3.20;99.90
3334;DHT22;1679;50.392;8.008;2022-12-07T03:00:08;3.20;99.90
3334;DHT22;1679;50.392;8.008;2022-12-07T03:03:06;3.20;99.90
3334;DHT22;1679;50.392;8.008;2022-12-07T03:06:03;3.20;99.90
3334;DHT22;1679;50.392;8.008;2022-12-07T03:11:19;3.20;99.90
3334;DHT22;1679;50.392;8.008;2022-12-07T03:14:01;3.20;99.90
3334;DHT22;1679;50.392;8.008;2022-12-07T03:16:37;3.20;99.90
3334;DHT22;1679;50.392;8.008;2022-12-07T03:19:12;3.30;99.90
3334;DHT22;1679;50.392;8.008;2022-12-07T03:21:51;3.30;99.90
3334;DHT22;1679;50.392;8.008;2022-12-07T03:24:22;3.30;99.90
3334;DHT22;1679;50.392;8.008;2022-12-07T03:26:55;3.30;99.90
3334;DHT22;1679;50.392;8.008;2022-12-07T03:29:28;3.30;99.90
3334;DHT22;1679;50.392;8.008;2022-12-07T03:32:04;3.30;99.90
3334;DHT22;1679;50.392;8.008;2022-12-07T03:34:38;3.30;99.90
3334;DHT22;1679;50.392;8.008;2022-12-07T03:37:12;3.30;99.90
3334;DHT22;1679;50.392;8.008;2022-12-07T03:39:49;3.30;99.90
3334;DHT22;1679;50.392;8.008;2022-12-07T03:42:19;3.30;99.90
3334;DHT22;1679;50.392;8.008;2022-12-07T03:44:45;3.40;99.90
3334;DHT22;1679;50.392;8.008;2022-12-07T03:47:29;3.30;99.90
3334;DHT22;1679;50.392;8.008;2022-12-07T03:52:45;3.30;99.90
3334;DHT22;1679;50.392;8.008;2022-12-07T03:55:28;3.30;99.90
3334;DHT22;1679;50.392;8.008;2022-12-07T03:58:02;3.30;99.90
3334;DHT22;1679;50.392;8.008;2022-12-07T04:00:29;3.30;99.90
3334;DHT22;1679;50.392;8.008;2022-12-07T04:02:55;3.30;99.90
3334;DHT22;1679;50.392;8.008;2022-12-07T04:05:21;3.30;99.90
3334;DHT22;1679;50.392;8.008;2022-12-07T04:07:47;3.30;99.90
3334;DHT22;1679;50.392;8.008;2022-12-07T04:10:12;3.30;99.90
3334;DHT22;1679;50.392;8.008;2022-12-07T04:12:38;3.30;99.90
3334;DHT22;1679;50.392;8.008;2022-12-07T04:15:04;3.40;99.90
3334;DHT22;1679;50.392;8.008;2022-12-07T04:17:31;3.30;99.90
3334;DHT22;1679;50.392;8.008;2022-12-07T04:19:57;3.40;99.90
3334;DHT22;1679;50.392;8.008;2022-12-07T04:22:23;3.40;99.90
3334;DHT22;1679;50.392;8.008;2022-12-07T04:24:48;3.40;99.90
3334;DHT22;1679;50.392;8.008;2022-12-07T04:27:14;3.50;99.90
3334;DHT22;1679;50.392;8.008;2022-12-07T04:29:39;3.40;99.90
3334;DHT22;1679;50.392;8.008;2022-12-07T04:32:05;3.40;99.90
3334;DHT22;1679;50.392;8.008;2022-12-07T04:34:30;3.40;99.90
3334;DHT22;1679;50.392;8.008;2022-12-07T04:36:56;3.40;99.90
3334;DHT22;1679;50.392;8.008;2022-12-07T04:39:30;3.50;99.90
3334;DHT22;1679;50.392;8.008;2022-12-07T04:41:57;3.50;99.90
3334;DHT22;1679;50.392;8.008;2022-12-07T04:44:24;3.40;99.90
3334;DHT22;1679;50.392;8.008;2022-12-07T04:46:51;3.40;99.90
3334;DHT22;1679;50.392;8.008;2022-12-07T04:49:17;3.40;99.90
3334;DHT22;1679;50.392;8.008;2022-12-07T04:51:43;3.40;99.90
3334;DHT22;1679;50.392;8.008;2022-12-07T04:54:09;3.30;99.90
3334;DHT22;1679;50.392;8.008;2022-12-07T04:56:34;3.40;99.90
3334;DHT22;1679;50.392;8.008;2022-12-07T04:59:01;3.40;99.90
3334;DHT22;1679;50.392;8.008;2022-12-07T05:01:26;3.40;99.90
3334;DHT22;1679;50.392;8.008;2022-12-07T05:03:52;3.40;99.90
3334;DHT22;1679;50.392;8.008;2022-12-07T05:06:18;3.40;99.90
3334;DHT22;1679;50.392;8.008;2022-12-07T05:08:44;3.40;99.90
3334;DHT22;1679;50.392;8.008;2022-12-07T05:11:10;3.40;99.90
3334;DHT22;1679;50.392;8.008;2022-12-07T05:13:56;3.50;99.90
3334;DHT22;1679;50.392;8.008;2022-12-07T05:16:21;3.40;99.90
3334;DHT22;1679;50.392;8.008;2022-12-07T05:18:47;3.50;99.90
3334;DHT22;1679;50.392;8.008;2022-12-07T05:21:12;3.40;99.90
3334;DHT22;1679;50.392;8.008;2022-12-07T05:23:38;3.50;99.90
3334;DHT22;1679;50.392;8.008;2022-12-07T05:26:03;3.50;99.90
3334;DHT22;1679;50.392;8.008;2022-12-07T05:28:29;3.40;99.90
3334;DHT22;1679;50.392;8.008;2022-12-07T05:30:54;3.50;99.90
3334;DHT22;1679;50.392;8.008;2022-12-07T05:33:20;3.60;99.90
3334;DHT22;1679;50.392;8.008;2022-12-07T05:35:45;3.50;99.90
3334;DHT22;1679;50.392;8.008;2022-12-07T05:38:11;3.50;99.90
3334;DHT22;1679;50.392;8.008;2022-12-07T05:40:37;3.60;99.90
3334;DHT22;1679;50.392;8.008;2022-12-07T05:43:02;3.60;99.90
3334;DHT22;1679;50.392;8.008;2022-12-07T05:45:28;3.50;99.90
3334;DHT22;1679;50.392;8.008;2022-12-07T05:47:53;3.60;99.90
3334;DHT22;1679;50.392;8.008;2022-12-07T05:50:19;3.60;99.90
3334;DHT22;1679;50.392;8.008;2022-12-07T05:52:44;3.50;99.90
3334;DHT22;1679;50.392;8.008;2022-12-07T05:55:10;3.50;99.90
3334;DHT22;1679;50.392;8.008;2022-12-07T05:57:35;3.40;99.90
3334;DHT22;1679;50.392;8.008;2022-12-07T06:00:01;3.40;99.90
3334;DHT22;1679;50.392;8.008;2022-12-07T06:02:27;3.40;99.90
3334;DHT22;1679;50.392;8.008;2022-12-07T06:04:52;3.40;99.90
3334;DHT22;1679;50.392;8.008;2022-12-07T06:07:18;3.40;99.90
3334;DHT22;1679;50.392;8.008;2022-12-07T06:09:43;3.40;99.90
3334;DHT22;1679;50.392;8.008;2022-12-07T06:12:11;3.40;99.90
3334;DHT22;1679;50.392;8.008;2022-12-07T06:14:55;3.30;99.90
3334;DHT22;1679;50.392;8.008;2022-12-07T06:17:21;3.30;99.90
3334;DHT22;1679;50.392;8.008;2022-12-07T06:19:48;3.30;99.90
3334;DHT22;1679;50.392;8.008;2022-12-07T06:22:14;3.30;99.90
3334;DHT22;1679;50.392;8.008;2022-12-07T06:24:41;3.30;99.90
3334;DHT22;1679;50.392;8.008;2022-12-07T06:27:08;3.30;99.90
3334;DHT22;1679;50.392;8.008;2022-12-07T06:29:33;3.30;99.90
3334;DHT22;1679;50.392;8.008;2022-12-07T06:31:59;3.30;99.90
3334;DHT22;1679;50.392;8.008;2022-12-07T06:34:25;3.40;99.90
3334;DHT22;1679;50.392;8.008;2022-12-07T06:36:51;3.40;99.90
3334;DHT22;1679;50.392;8.008;2022-12-07T06:39:19;3.40;99.90
3334;DHT22;1679;50.392;8.008;2022-12-07T06:41:45;3.40;99.90
3334;DHT22;1679;50.392;8.008;2022-12-07T06:44:11;3.40;99.90
3334;DHT22;1679;50.392;8.008;2022-12-07T06:46:36;3.40;99.90
3334;DHT22;1679;50.392;8.008;2022-12-07T06:49:04;3.50;99.90
3334;DHT22;1679;50.392;8.008;2022-12-07T06:51:30;3.50;99.90
3334;DHT22;1679;50.392;8.008;2022-12-07T06:53:55;3.50;99.90
3334;DHT22;1679;50.392;8.008;2022-12-07T06:56:21;3.50;99.90
3334;DHT22;1679;50.392;8.008;2022-12-07T06:58:48;3.40;99.90
3334;DHT22;1679;50.392;8.008;2022-12-07T07:01:16;3.40;99.90
3334;DHT22;1679;50.392;8.008;2022-12-07T07:03:42;3.40;99.90
3334;DHT22;1679;50.392;8.008;2022-12-07T07:06:08;3.40;99.90
3334;DHT22;1679;50.392;8.008;2022-12-07T07:08:34;3.40;99.90
3334;DHT22;1679;50.392;8.008;2022-12-07T07:11:00;3.40;99.90
3334;DHT22;1679;50.392;8.008;2022-12-07T07:13:27;3.40;99.90
3334;DHT22;1679;50.392;8.008;2022-12-07T07:15:53;3.40;99.90
3334;DHT22;1679;50.392;8.008;2022-12-07T07:18:18;3.40;99.90
3334;DHT22;1679;50.392;8.008;2022-12-07T07:20:44;3.40;99.90
3334;DHT22;1679;50.392;8.008;2022-12-07T07:23:09;3.40;99.90
3334;DHT22;1679;50.392;8.008;2022-12-07T07:25:35;3.40;99.90
3334;DHT22;1679;50.392;8.008;2022-12-07T07:28:00;3.40;99.90
3334;DHT22;1679;50.392;8.008;2022-12-07T07:30:26;3.40;99.90
3334;DHT22;1679;50.392;8.008;2022-12-07T07:32:59;3.40;99.90
3334;DHT22;1679;50.392;8.008;2022-12-07T07:35:26;3.40;99.90
3334;DHT22;1679;50.392;8.008;2022-12-07T07:37:52;3.40;99.90
3334;DHT22;1679;50.392;8.008;2022-12-07T07:40:18;3.40;99.90
3334;DHT22;1679;50.392;8.008;2022-12-07T07:42:43;3.40;99.90
3334;DHT22;1679;50.392;8.008;2022-12-07T07:45:09;3.40;99.90
3334;DHT22;1679;50.392;8.008;2022-12-07T07:47:35;3.50;99.90
3334;DHT22;1679;50.392;8.008;2022-12-07T07:50:01;3.50;99.90
3334;DHT22;1679;50.392;8.008;2022-12-07T07:52:26;3.60;99.90
3334;DHT22;1679;50.392;8.008;2022-12-07T07:54:52;3.60;99.90
3334;DHT22;1679;50.392;8.008;2022-12-07T07:57:18;3.70;99.90
3334;DHT22;1679;50.392;8.008;2022-12-07T07:59:43;3.80;99.90
3334;DHT22;1679;50.392;8.008;2022-12-07T08:02:14;3.80;99.90
3334;DHT22;1679;50.392;8.008;2022-12-07T08:04:40;3.80;99.90
3334;DHT22;1679;50.392;8.008;2022-12-07T08:07:05;3.80;99.90
3334;DHT22;1679;50.392;8.008;2022-12-07T08:09:31;3.80;99.90
3334;DHT22;1679;50.392;8.008;2022-12-07T08:11:57;3.70;99.90
3334;DHT22;1679;50.392;8.008;2022-12-07T08:14:23;3.70;99.90
3334;DHT22;1679;50.392;8.008;2022-12-07T08:16:49;3.70;99.90
3334;DHT22;1679;50.392;8.008;2022-12-07T08:19:14;3.70;99.90
3334;DHT22;1679;50.392;8.008;2022-12-07T08:21:40;3.60;99.90
3334;DHT22;1679;50.392;8.008;2022-12-07T08:24:06;3.60;99.90
3334;DHT22;1679;50.392;8.008;2022-12-07T08:26:31;3.50;99.90
3334;DHT22;1679;50.392;8.008;2022-12-07T08:28:57;3.50;99.90
3334;DHT22;1679;50.392;8.008;2022-12-07T08:31:22;3.50;99.90
3334;DHT22;1679;50.392;8.008;2022-12-07T08:33:48;3.50;99.90
3334;DHT22;1679;50.392;8.008;2022-12-07T08:36:15;3.80;99.90
3334;DHT22;1679;50.392;8.008;2022-12-07T08:38:42;3.90;99.90
3334;DHT22;1679;50.392;8.008;2022-12-07T08:41:08;4.00;99.90
3334;DHT22;1679;50.392;8.008;2022-12-07T08:43:35;4.20;99.90
3334;DHT22;1679;50.392;8.008;2022-12-07T08:46:06;4.50;99.90
3334;DHT22;1679;50.392;8.008;2022-12-07T08:48:32;4.70;99.90
3334;DHT22;1679;50.392;8.008;2022-12-07T08:50:58;5.00;99.90
3334;DHT22;1679;50.392;8.008;2022-12-07T08:53:24;5.20;99.90
3334;DHT22;1679;50.392;8.008;2022-12-07T08:55:49;5.10;99.90
3334;DHT22;1679;50.392;8.008;2022-12-07T08:58:15;5.00;99.90
3334;DHT22;1679;50.392;8.008;2022-12-07T09:00:40;4.90;99.90
3334;DHT22;1679;50.392;8.008;2022-12-07T09:03:06;4.80;99.90
3334;DHT22;1679;50.392;8.008;2022-12-07T09:05:33;4.70;99.90
3334;DHT22;1679;50.392;8.008;2022-12-07T09:08:00;4.60;99.90
3334;DHT22;1679;50.392;8.008;2022-12-07T09:10:26;4.60;99.90
3334;DHT22;1679;50.392;8.008;2022-12-07T09:12:52;4.50;99.90
3334;DHT22;1679;50.392;8.008;2022-12-07T09:15:17;4.60;99.90
3334;DHT22;1679;50.392;8.008;2022-12-07T09:17:44;4.60;99.90
3334;DHT22;1679;50.392;8.008;2022-12-07T09:20:10;4.70;99.90
3334;DHT22;1679;50.392;8.008;2022-12-07T09:22:36;4.70;99.90
3334;DHT22;1679;50.392;8.008;2022-12-07T09:25:02;4.70;99.90
3334;DHT22;1679;50.392;8.008;2022-12-07T09:27:28;4.70;99.90
3334;DHT22;1679;50.392;8.008;2022-12-07T09:29:54;4.70;99.90
3334;DHT22;1679;50.392;8.008;2022-12-07T09:32:19;4.70;99.90
3334;DHT22;1679;50.392;8.008;2022-12-07T09:34:45;4.80;99.90
3334;DHT22;1679;50.392;8.008;2022-12-07T09:37:10;4.90;99.90
3334;DHT22;1679;50.392;8.008;2022-12-07T09:39:40;4.90;99.90
3334;DHT22;1679;50.392;8.008;2022-12-07T09:42:06;4.90;99.90
3334;DHT22;1679;50.392;8.008;2022-12-07T09:44:33;4.80;99.90
3334;DHT22;1679;50.392;8.008;2022-12-07T09:47:00;4.80;99.90
3334;DHT22;1679;50.392;8.008;2022-12-07T09:49:28;4.90;99.90
3334;DHT22;1679;50.392;8.008;2022-12-07T09:52:25;5.00;99.90
3334;DHT22;1679;50.392;8.008;2022-12-07T09:54:52;5.10;99.90
3334;DHT22;1679;50.392;8.008;2022-12-07T09:57:29;5.10;99.90
3334;DHT22;1679;50.392;8.008;2022-12-07T09:59:59;5.20;99.90
3334;DHT22;1679;50.392;8.008;2022-12-07T10:02:41;5.20;99.90
3334;DHT22;1679;50.392;8.008;2022-12-07T10:05:16;5.20;99.90
3334;DHT22;1679;50.392;8.008;2022-12-07T10:07:42;5.20;99.90
3334;DHT22;1679;50.392;8.008;2022-12-07T10:10:25;5.40;99.90
3334;DHT22;1679;50.392;8.008;2022-12-07T10:13:04;5.60;99.90
3334;DHT22;1679;50.392;8.008;2022-12-07T10:15:54;5.80;99.90
3334;DHT22;1679;50.392;8.008;2022-12-07T10:21:15;6.00;99.90
3334;DHT22;1679;50.392;8.008;2022-12-07T10:26:33;6.00;99.90
3334;DHT22;1679;50.392;8.008;2022-12-07T10:29:02;6.00;99.90
3334;DHT22;1679;50.392;8.008;2022-12-07T10:31:29;5.90;99.90
3334;DHT22;1679;50.392;8.008;2022-12-07T10:33:58;5.90;99.90
3334;DHT22;1679;50.392;8.008;2022-12-07T10:36:36;5.90;99.90
3334;DHT22;1679;50.392;8.008;2022-12-07T10:39:19;5.80;99.90
3334;DHT22;1679;50.392;8.008;2022-12-07T10:41:57;5.90;99.90
3334;DHT22;1679;50.392;8.008;2022-12-07T10:44:29;6.00;99.90
3334;DHT22;1679;50.392;8.008;2022-12-07T10:50:17;6.20;99.90
3334;DHT22;1679;50.392;8.008;2022-12-07T10:58:37;6.10;99.90
3334;DHT22;1679;50.392;8.008;2022-12-07T11:04:35;6.30;99.90
3334;DHT22;1679;50.392;8.008;2022-12-07T11:07:13;6.40;99.90
3334;DHT22;1679;50.392;8.008;2022-12-07T11:12:49;6.10;99.90
3334;DHT22;1679;50.392;8.008;2022-12-07T11:18:45;5.60;99.90
3334;DHT22;1679;50.392;8.008;2022-12-07T11:27:21;5.00;99.90
3334;DHT22;1679;50.392;8.008;2022-12-07T11:30:08;4.90;99.90
3334;DHT22;1679;50.392;8.008;2022-12-07T11:35:38;4.80;99.90
3334;DHT22;1679;50.392;8.008;2022-12-07T11:38:15;4.70;99.90
3334;DHT22;1679;50.392;8.008;2022-12-07T11:40:45;4.70;99.90
3334;DHT22;1679;50.392;8.008;2022-12-07T11:43:25;4.70;99.90
3334;DHT22;1679;50.392;8.008;2022-12-07T11:46:00;4.70;99.90
3334;DHT22;1679;50.392;8.008;2022-12-07T11:51:38;4.80;99.90
3334;DHT22;1679;50.392;8.008;2022-12-07T11:54:21;5.00;99.90
3334;DHT22;1679;50.392;8.008;2022-12-07T11:56:50;5.10;99.90
3334;DHT22;1679;50.392;8.008;2022-12-07T11:59:23;5.20;99.90
3334;DHT22;1679;50.392;8.008;2022-12-07T12:04:29;5.10;99.90
3334;DHT22;1679;50.392;8.008;2022-12-07T12:06:56;4.90;99.90
3334;DHT22;1679;50.392;8.008;2022-12-07T12:20:29;4.50;99.90
3334;DHT22;1679;50.392;8.008;2022-12-07T12:23:06;4.50;99.90
3334;DHT22;1679;50.392;8.008;2022-12-07T12:28:04;4.30;99.90
3334;DHT22;1679;50.392;8.008;2022-12-07T12:30:36;4.30;99.90
3334;DHT22;1679;50.392;8.008;2022-12-07T12:33:14;4.20;99.90
3334;DHT22;1679;50.392;8.008;2022-12-07T12:35:41;4.20;99.90
3334;DHT22;1679;50.392;8.008;2022-12-07T12:38:32;4.20;99.90
3334;DHT22;1679;50.392;8.008;2022-12-07T12:41:00;4.20;99.90
3334;DHT22;1679;50.392;8.008;2022-12-07T12:43:46;4.20;99.90
3334;DHT22;1679;50.392;8.008;2022-12-07T12:49:13;4.30;99.90
3334;DHT22;1679;50.392;8.008;2022-12-07T12:51:41;4.30;99.90
3334;DHT22;1679;50.392;8.008;2022-12-07T12:54:25;4.30;99.90
3334;DHT22;1679;50.392;8.008;2022-12-07T13:02:21;4.20;99.90
3334;DHT22;1679;50.392;8.008;2022-12-07T13:04:54;4.10;99.90
3334;DHT22;1679;50.392;8.008;2022-12-07T13:15:47;4.10;99.90
3334;DHT22;1679;50.392;8.008;2022-12-07T13:23:26;4.20;99.90
3334;DHT22;1679;50.392;8.008;2022-12-07T13:29:11;4.10;99.90
3334;DHT22;1679;50.392;8.008;2022-12-07T13:31:54;4.00;99.90
3334;DHT22;1679;50.392;8.008;2022-12-07T13:34:52;3.90;99.90
3334;DHT22;1679;50.392;8.008;2022-12-07T13:39:49;3.90;99.90
3334;DHT22;1679;50.392;8.008;2022-12-07T13:42:27;3.80;99.90
3334;DHT22;1679;50.392;8.008;2022-12-07T13:44:54;3.90;99.90
3334;DHT22;1679;50.392;8.008;2022-12-07T13:47:31;3.80;99.90
3334;DHT22;1679;50.392;8.008;2022-12-07T13:50:00;3.80;99.90
3334;DHT22;1679;50.392;8.008;2022-12-07T13:52:30;3.90;99.90
3334;DHT22;1679;50.392;8.008;2022-12-07T13:55:14;3.90;99.90
3334;DHT22;1679;50.392;8.008;2022-12-07T13:57:41;4.00;99.90
3334;DHT22;1679;50.392;8.008;2022-12-07T14:00:24;4.10;99.90
3334;DHT22;1679;50.392;8.008;2022-12-07T14:02:58;4.20;99.90
3334;DHT22;1679;50.392;8.008;2022-12-07T14:05:26;4.40;99.90
3334;DHT22;1679;50.392;8.008;2022-12-07T14:08:21;4.50;99.90
3334;DHT22;1679;50.392;8.008;2022-12-07T14:16:00;4.60;99.90
3334;DHT22;1679;50.392;8.008;2022-12-07T14:21:27;4.50;99.90
3334;DHT22;1679;50.392;8.008;2022-12-07T14:26:38;4.50;99.90
3334;DHT22;1679;50.392;8.008;2022-12-07T14:31:57;4.40;99.90
3334;DHT22;1679;50.392;8.008;2022-12-07T14:34:23;4.40;99.90
3334;DHT22;1679;50.392;8.008;2022-12-07T14:36:49;4.40;99.90
3334;DHT22;1679;50.392;8.008;2022-12-07T14:39:14;4.40;99.90
3334;DHT22;1679;50.392;8.008;2022-12-07T14:41:40;4.40;99.90
3334;DHT22;1679;50.392;8.008;2022-12-07T14:44:19;4.40;99.90
3334;DHT22;1679;50.392;8.008;2022-12-07T14:46:46;4.40;99.90
3334;DHT22;1679;50.392;8.008;2022-12-07T14:49:12;4.30;99.90
3334;DHT22;1679;50.392;8.008;2022-12-07T14:51:39;4.30;99.90
3334;DHT22;1679;50.392;8.008;2022-12-07T14:54:06;4.20;99.90
3334;DHT22;1679;50.392;8.008;2022-12-07T14:56:34;4.00;99.90
3334;DHT22;1679;50.392;8.008;2022-12-07T14:59:00;3.70;99.90
3334;DHT22;1679;50.392;8.008;2022-12-07T15:01:25;3.60;99.90
3334;DHT22;1679;50.392;8.008;2022-12-07T15:03:51;3.40;99.90
3334;DHT22;1679;50.392;8.008;2022-12-07T15:06:18;3.30;99.90
3334;DHT22;1679;50.392;8.008;2022-12-07T15:08:44;3.20;99.90
3334;DHT22;1679;50.392;8.008;2022-12-07T15:11:15;3.30;99.90
3334;DHT22;1679;50.392;8.008;2022-12-07T15:13:41;3.30;99.90
3334;DHT22;1679;50.392;8.008;2022-12-07T15:16:26;3.20;99.90
3334;DHT22;1679;50.392;8.008;2022-12-07T15:18:51;3.20;99.90
3334;DHT22;1679;50.392;8.008;2022-12-07T15:21:17;3.20;99.90
3334;DHT22;1679;50.392;8.008;2022-12-07T15:23:42;3.10;99.90
3334;DHT22;1679;50.392;8.008;2022-12-07T15:26:09;3.10;99.90
3334;DHT22;1679;50.392;8.008;2022-12-07T15:28:35;3.10;99.90
3334;DHT22;1679;50.392;8.008;2022-12-07T15:31:01;3.00;99.90
3334;DHT22;1679;50.392;8.008;2022-12-07T15:33:26;2.90;99.90
3334;DHT22;1679;50.392;8.008;2022-12-07T15:35:52;2.90;99.90
3334;DHT22;1679;50.392;8.008;2022-12-07T15:38:17;2.90;99.90
3334;DHT22;1679;50.392;8.008;2022-12-07T15:40:46;2.80;99.90
3334;DHT22;1679;50.392;8.008;2022-12-07T15:43:12;2.80;99.90
3334;DHT22;1679;50.392;8.008;2022-12-07T15:45:56;2.80;99.90
3334;DHT22;1679;50.392;8.008;2022-12-07T15:48:21;2.90;99.90
3334;DHT22;1679;50.392;8.008;2022-12-07T15:50:47;2.90;99.90
3334;DHT22;1679;50.392;8.008;2022-12-07T15:53:12;2.90;99.90
3334;DHT22;1679;50.392;8.008;2022-12-07T15:55:39;2.90;99.90
3334;DHT22;1679;50.392;8.008;2022-12-07T15:58:05;2.80;99.90
3334;DHT22;1679;50.392;8.008;2022-12-07T16:00:30;2.80;99.90
3334;DHT22;1679;50.392;8.008;2022-12-07T16:02:56;2.80;99.90
3334;DHT22;1679;50.392;8.008;2022-12-07T16:05:21;2.70;99.90
3334;DHT22;1679;50.392;8.008;2022-12-07T16:07:47;2.70;99.90
3334;DHT22;1679;50.392;8.008;2022-12-07T16:10:13;2.70;99.90
3334;DHT22;1679;50.392;8.008;2022-12-07T16:12:38;2.60;99.90
3334;DHT22;1679;50.392;8.008;2022-12-07T16:15:04;2.60;99.90
3334;DHT22;1679;50.392;8.008;2022-12-07T16:17:31;2.60;99.90
3334;DHT22;1679;50.392;8.008;2022-12-07T16:19:57;2.60;99.90
3334;DHT22;1679;50.392;8.008;2022-12-07T16:22:23;2.60;99.90
3334;DHT22;1679;50.392;8.008;2022-12-07T16:24:48;2.50;99.90
3334;DHT22;1679;50.392;8.008;2022-12-07T16:27:14;2.50;99.90
3334;DHT22;1679;50.392;8.008;2022-12-07T16:29:40;2.50;99.90
3334;DHT22;1679;50.392;8.008;2022-12-07T16:32:05;2.50;99.90
3334;DHT22;1679;50.392;8.008;2022-12-07T16:34:31;2.40;99.90
3334;DHT22;1679;50.392;8.008;2022-12-07T16:36:57;2.40;99.90
3334;DHT22;1679;50.392;8.008;2022-12-07T16:39:23;2.40;99.90
3334;DHT22;1679;50.392;8.008;2022-12-07T16:41:49;2.40;99.90
3334;DHT22;1679;50.392;8.008;2022-12-07T16:44:15;2.50;99.90
3334;DHT22;1679;50.392;8.008;2022-12-07T16:46:41;2.40;99.90
3334;DHT22;1679;50.392;8.008;2022-12-07T16:49:11;2.40;99.90
3334;DHT22;1679;50.392;8.008;2022-12-07T16:51:37;2.40;99.90
3334;DHT22;1679;50.392;8.008;2022-12-07T16:54:02;2.40;99.90
3334;DHT22;1679;50.392;8.008;2022-12-07T16:56:28;2.40;99.90
3334;DHT22;1679;50.392;8.008;2022-12-07T16:58:54;2.40;99.90
3334;DHT22;1679;50.392;8.008;2022-12-07T17:01:21;2.40;99.90
3334;DHT22;1679;50.392;8.008;2022-12-07T17:03:53;2.40;99.90
3334;DHT22;1679;50.392;8.008;2022-12-07T17:06:21;2.40;99.90
3334;DHT22;1679;50.392;8.008;2022-12-07T17:08:48;2.50;99.90
3334;DHT22;1679;50.392;8.008;2022-12-07T17:11:36;2.50;99.90
3334;DHT22;1679;50.392;8.008;2022-12-07T17:14:01;2.50;99.90
3334;DHT22;1679;50.392;8.008;2022-12-07T17:16:45;2.50;99.90
3334;DHT22;1679;50.392;8.008;2022-12-07T17:19:14;2.60;99.90
3334;DHT22;1679;50.392;8.008;2022-12-07T17:21:40;2.70;99.90
3334;DHT22;1679;50.392;8.008;2022-12-07T17:24:07;2.70;99.90
3334;DHT22;1679;50.392;8.008;2022-12-07T17:26:33;2.70;99.90
3334;DHT22;1679;50.392;8.008;2022-12-07T17:28:59;2.70;99.90
3334;DHT22;1679;50.392;8.008;2022-12-07T17:31:25;2.80;99.90
3334;DHT22;1679;50.392;8.008;2022-12-07T17:33:51;2.80;99.90
3334;DHT22;1679;50.392;8.008;2022-12-07T17:36:20;2.80;99.90
3334;DHT22;1679;50.392;8.008;2022-12-07T17:38:45;2.80;99.90
3334;DHT22;1679;50.392;8.008;2022-12-07T17:41:14;2.80;99.90
3334;DHT22;1679;50.392;8.008;2022-12-07T17:44:05;2.80;99.90
3334;DHT22;1679;50.392;8.008;2022-12-07T17:46:31;2.80;99.90
3334;DHT22;1679;50.392;8.008;2022-12-07T17:48:58;2.80;99.90
3334;DHT22;1679;50.392;8.008;2022-12-07T17:51:24;2.80;99.90
3334;DHT22;1679;50.392;8.008;2022-12-07T17:54:08;2.80;99.90
3334;DHT22;1679;50.392;8.008;2022-12-07T17:56:35;2.80;99.90
3334;DHT22;1679;50.392;8.008;2022-12-07T17:59:01;2.80;99.90
3334;DHT22;1679;50.392;8.008;2022-12-07T18:01:26;2.90;99.90
3334;DHT22;1679;50.392;8.008;2022-12-07T18:03:52;2.90;99.90
3334;DHT22;1679;50.392;8.008;2022-12-07T18:06:17;3.00;99.90
3334;DHT22;1679;50.392;8.008;2022-12-07T18:08:43;3.00;99.90
3334;DHT22;1679;50.392;8.008;2022-12-07T18:11:09;3.00;99.90
3334;DHT22;1679;50.392;8.008;2022-12-07T18:13:34;3.00;99.90
3334;DHT22;1679;50.392;8.008;2022-12-07T18:16:01;3.00;99.90
3334;DHT22;1679;50.392;8.008;2022-12-07T18:18:27;2.90;99.90
3334;DHT22;1679;50.392;8.008;2022-12-07T18:20:53;2.90;99.90